Observations for WELLINGTON INTL, New Zealand (NZWN)

NZWN 230500Z AUTO 21006KT 9999 NCD 14/11 Q1025 NOSIG
NZWN 230430Z AUTO 20007KT 9999 NCD 14/11 Q1025 NOSIG
NZWN 230400Z AUTO 21007KT 9999 FEW020/// 14/10 Q1025 NOSIG  
NZWN 230330Z AUTO 21007KT 9999 FEW022/// 14/10 Q1025 NOSIG  
NZWN 230300Z AUTO 22007KT 9999 NCD 15/10 Q1024 NOSIG
NZWN 230230Z AUTO 22007KT 9999 NCD 15/10 Q1024 NOSIG
NZWN 230200Z AUTO 22009KT 9999 NCD 14/11 Q1025 NOSIG
NZWN 230130Z AUTO 19007KT 9999 NCD 14/11 Q1025 NOSIG
NZWN 230100Z AUTO 18008KT 9999 NCD 15/11 Q1025 NOSIG
NZWN 230030Z AUTO 18008KT 150V220 9999 NCD 15/11 Q1025 NOSIG
NZWN 230000Z AUTO 32002KT 9999 NCD 17/11 Q1024 NOSIG
NZWN 222330Z AUTO 27002KT 9999 NCD 16/10 Q1025 NOSIG
NZWN 222300Z AUTO 04003KT 9999 NCD 16/10 Q1025 NOSIG
NZWN 222230Z AUTO 35005KT 9999 NCD 15/10 Q1024 NOSIG
NZWN 222200Z AUTO 35008KT 9999 NCD 14/10 Q1024 NOSIG
NZWN 222130Z AUTO 36008KT 9999 NCD 13/10 Q1024 NOSIG
NZWN 222100Z AUTO 36008KT 9999 NCD 12/10 Q1024 NOSIG
NZWN 222030Z AUTO 35008KT 9999 NCD 11/10 Q1023 NOSIG
NZWN 222000Z AUTO 35008KT 9999 NCD 11/09 Q1023 NOSIG
NZWN 221930Z AUTO 36009KT 9999 NCD 11/09 Q1023 NOSIG
NZWN 221900Z AUTO 35009KT 9999 NCD 11/09 Q1022 NOSIG
NZWN 221830Z AUTO 36009KT 9999 NCD 11/09 Q1022 NOSIG
NZWN 221800Z AUTO 01008KT 9999 NCD 11/09 Q1022 NOSIG
NZWN 221730Z AUTO 35009KT 9999 NCD 11/09 Q1022 NOSIG
NZWN 221700Z AUTO 36008KT 9999 NCD 10/09 Q1022 NOSIG
NZWN 221630Z AUTO 01009KT 9999 NCD 11/09 Q1021 NOSIG
NZWN 221600Z AUTO 01008KT 9999 NCD 10/09 Q1021 NOSIG
NZWN 221530Z AUTO 36008KT 9999 NCD 10/09 Q1021 NOSIG
NZWN 221500Z AUTO 01008KT 9999 NCD 11/08 Q1021 NOSIG
NZWN 221430Z AUTO 02008KT 9999 NCD 11/09 Q1021 NOSIG
NZWN 221400Z AUTO 36010KT 9999 NCD 11/09 Q1021 NOSIG
NZWN 221330Z AUTO 01009KT 9999 NCD 11/09 Q1021 NOSIG
NZWN 221300Z AUTO 02010KT 9999 NCD 12/09 Q1021 NOSIG
NZWN 221230Z AUTO 01011KT 9999 NCD 11/09 Q1021 NOSIG
NZWN 221200Z AUTO 36010KT 9999 NCD 12/10 Q1021 NOSIG
NZWN 221130Z AUTO 02009KT 9999 NCD 12/09 Q1021 NOSIG
NZWN 221100Z AUTO 02009KT 9999 NCD 12/09 Q1021 NOSIG
NZWN 221030Z AUTO 02010KT 9999 NCD 12/09 Q1021 NOSIG
NZWN 221000Z AUTO 02010KT 9999 NCD 12/09 Q1021 NOSIG
NZWN 220930Z AUTO 02012KT 9999 NCD 13/09 Q1021 NOSIG
NZWN 220900Z AUTO 02012KT 9999 NCD 13/10 Q1021 NOSIG
NZWN 220830Z AUTO 02012KT 9999 NCD 13/10 Q1020 NOSIG
NZWN 220800Z AUTO 02013KT 9999 NCD 13/09 Q1021 NOSIG
NZWN 220730Z AUTO 03013KT 9999 FEW023/// 13/10 Q1020 NOSIG  
NZWN 220700Z AUTO 02013KT 9999 SCT021/// 14/10 Q1020 NOSIG  
NZWN 220630Z AUTO 02014KT 9999 FEW021/// 14/09 Q1020 NOSIG  
NZWN 220600Z AUTO 02015KT 9999 FEW022/// 14/10 Q1020 NOSIG  
NZWN 220530Z AUTO 02014KT 9999 SCT022/// 14/09 Q1020 NOSIG  
NZWN 220500Z AUTO 02016KT 9999 NCD 14/09 Q1020 NOSIG
NZWN 220430Z AUTO 01017KT 9999 NCD 14/09 Q1020 NOSIG